Jard de Penuelas, Puerto Rico
Current Conditions -  °F | °C
As of 11:56 PM on Saturday 22 Nov 2014 (Local Time) from TJSJ Reporting Station
Scattered Clouds Scattered Clouds  
Wind Chill: 77°   Ceiling: Unl
Heat Index: 78°   Visibility: 10mi
Dew Point: 75°   Wind: 5mph
Humidity: 94%   Direction: 110°ESE
Pressure: 30.02"   Gusts: NA
Location:  18.0112°N, 66.3514°W
Report Text: TJSJ 230356Z 11004KT 10SM FEW025 SCT031 SCT055 25/24 A3002 RMK AO2 RAB15E45 SLP164 P0003 T02500239 402890233 $
Loading
Personal Weather Stations






























Interactive Weather Map New forecast layout! Learn more

10-Day Weather Forecast

Advertisements
Track Severe Weather on mobile